sensor_id;sensor_type;location;lat;lon;timestamp;P1;durP1;ratioP1;P2;durP2;ratioP2
25868;SDS011;13688;53.154;18.136;2023-06-22T00:05:24;15.90;;;7.70;;
25868;SDS011;13688;53.154;18.136;2023-06-22T00:10:47;10.33;;;8.00;;
25868;SDS011;13688;53.154;18.136;2023-06-22T00:16:09;12.28;;;9.85;;
25868;SDS011;13688;53.154;18.136;2023-06-22T00:21:32;10.73;;;9.63;;
25868;SDS011;13688;53.154;18.136;2023-06-22T00:27:11;12.03;;;9.50;;
25868;SDS011;13688;53.154;18.136;2023-06-22T00:32:33;11.80;;;10.23;;
25868;SDS011;13688;53.154;18.136;2023-06-22T00:37:56;12.80;;;9.60;;
25868;SDS011;13688;53.154;18.136;2023-06-22T00:43:19;11.70;;;10.50;;
25868;SDS011;13688;53.154;18.136;2023-06-22T00:48:41;10.63;;;9.53;;
25868;SDS011;13688;53.154;18.136;2023-06-22T00:54:04;11.80;;;9.10;;
25868;SDS011;13688;53.154;18.136;2023-06-22T00:59:28;11.23;;;9.73;;
25868;SDS011;13688;53.154;18.136;2023-06-22T01:04:52;11.27;;;10.07;;
25868;SDS011;13688;53.154;18.136;2023-06-22T01:10:25;11.67;;;10.47;;
25868;SDS011;13688;53.154;18.136;2023-06-22T01:16:01;11.23;;;9.13;;
25868;SDS011;13688;53.154;18.136;2023-06-22T01:21:30;12.63;;;9.25;;
25868;SDS011;13688;53.154;18.136;2023-06-22T01:26:57;9.98;;;7.78;;
25868;SDS011;13688;53.154;18.136;2023-06-22T01:32:40;11.87;;;7.63;;
25868;SDS011;13688;53.154;18.136;2023-06-22T01:38:05;13.43;;;8.57;;
25868;SDS011;13688;53.154;18.136;2023-06-22T01:43:29;9.30;;;7.70;;
25868;SDS011;13688;53.154;18.136;2023-06-22T01:48:53;9.53;;;7.40;;
25868;SDS011;13688;53.154;18.136;2023-06-22T01:54:16;8.40;;;6.00;;
25868;SDS011;13688;53.154;18.136;2023-06-22T01:59:43;10.60;;;5.97;;
25868;SDS011;13688;53.154;18.136;2023-06-22T02:05:12;11.00;;;6.27;;
25868;SDS011;13688;53.154;18.136;2023-06-22T02:10:39;6.60;;;5.90;;
25868;SDS011;13688;53.154;18.136;2023-06-22T02:16:03;7.37;;;6.60;;
25868;SDS011;13688;53.154;18.136;2023-06-22T02:21:27;10.65;;;6.58;;
25868;SDS011;13688;53.154;18.136;2023-06-22T02:26:50;10.63;;;6.40;;
25868;SDS011;13688;53.154;18.136;2023-06-22T02:32:13;9.27;;;6.23;;
25868;SDS011;13688;53.154;18.136;2023-06-22T02:37:38;10.60;;;5.80;;
25868;SDS011;13688;53.154;18.136;2023-06-22T02:43:00;7.67;;;5.65;;
25868;SDS011;13688;53.154;18.136;2023-06-22T02:48:23;9.47;;;6.13;;
25868;SDS011;13688;53.154;18.136;2023-06-22T02:53:47;8.27;;;6.03;;
25868;SDS011;13688;53.154;18.136;2023-06-22T02:59:09;9.85;;;6.33;;
25868;SDS011;13688;53.154;18.136;2023-06-22T03:04:34;13.43;;;6.67;;
25868;SDS011;13688;53.154;18.136;2023-06-22T03:09:57;8.40;;;5.90;;
25868;SDS011;13688;53.154;18.136;2023-06-22T03:15:20;7.05;;;5.62;;
25868;SDS011;13688;53.154;18.136;2023-06-22T03:20:42;10.37;;;6.10;;
25868;SDS011;13688;53.154;18.136;2023-06-22T03:26:06;7.30;;;5.08;;
25868;SDS011;13688;53.154;18.136;2023-06-22T03:31:30;7.70;;;5.00;;
25868;SDS011;13688;53.154;18.136;2023-06-22T03:36:53;8.80;;;4.60;;
25868;SDS011;13688;53.154;18.136;2023-06-22T03:42:15;8.30;;;4.30;;
25868;SDS011;13688;53.154;18.136;2023-06-22T03:47:40;8.07;;;4.03;;
25868;SDS011;13688;53.154;18.136;2023-06-22T03:53:02;7.57;;;4.20;;
25868;SDS011;13688;53.154;18.136;2023-06-22T03:58:25;9.93;;;4.70;;
25868;SDS011;13688;53.154;18.136;2023-06-22T04:03:48;11.80;;;4.20;;
25868;SDS011;13688;53.154;18.136;2023-06-22T04:09:11;7.08;;;4.40;;
25868;SDS011;13688;53.154;18.136;2023-06-22T04:14:34;7.03;;;4.80;;
25868;SDS011;13688;53.154;18.136;2023-06-22T04:19:56;9.03;;;4.50;;
25868;SDS011;13688;53.154;18.136;2023-06-22T04:25:19;10.18;;;4.87;;
25868;SDS011;13688;53.154;18.136;2023-06-22T04:30:41;10.35;;;5.12;;
25868;SDS011;13688;53.154;18.136;2023-06-22T04:36:06;9.00;;;4.58;;
25868;SDS011;13688;53.154;18.136;2023-06-22T04:41:28;9.43;;;4.60;;
25868;SDS011;13688;53.154;18.136;2023-06-22T04:46:58;12.00;;;4.85;;
25868;SDS011;13688;53.154;18.136;2023-06-22T04:52:21;8.20;;;4.43;;
25868;SDS011;13688;53.154;18.136;2023-06-22T04:57:44;7.42;;;5.08;;
25868;SDS011;13688;53.154;18.136;2023-06-22T05:03:08;6.57;;;4.40;;
25868;SDS011;13688;53.154;18.136;2023-06-22T05:08:31;9.70;;;4.80;;
25868;SDS011;13688;53.154;18.136;2023-06-22T05:13:53;10.20;;;5.33;;
25868;SDS011;13688;53.154;18.136;2023-06-22T05:19:16;8.65;;;5.25;;
25868;SDS011;13688;53.154;18.136;2023-06-22T05:24:38;7.53;;;4.63;;
25868;SDS011;13688;53.154;18.136;2023-06-22T05:30:01;7.47;;;4.53;;
25868;SDS011;13688;53.154;18.136;2023-06-22T05:35:25;8.90;;;5.00;;
25868;SDS011;13688;53.154;18.136;2023-06-22T05:40:47;7.70;;;4.40;;
25868;SDS011;13688;53.154;18.136;2023-06-22T05:46:09;11.43;;;4.60;;
25868;SDS011;13688;53.154;18.136;2023-06-22T05:51:33;8.38;;;5.00;;
25868;SDS011;13688;53.154;18.136;2023-06-22T05:56:55;7.93;;;4.57;;
25868;SDS011;13688;53.154;18.136;2023-06-22T06:02:19;7.30;;;4.92;;
25868;SDS011;13688;53.154;18.136;2023-06-22T06:07:44;9.30;;;4.43;;
25868;SDS011;13688;53.154;18.136;2023-06-22T06:13:08;7.50;;;4.30;;
25868;SDS011;13688;53.154;18.136;2023-06-22T06:18:31;5.27;;;3.90;;
25868;SDS011;13688;53.154;18.136;2023-06-22T06:23:54;7.97;;;4.25;;
25868;SDS011;13688;53.154;18.136;2023-06-22T06:29:17;9.93;;;3.95;;
25868;SDS011;13688;53.154;18.136;2023-06-22T06:34:39;7.13;;;3.77;;
25868;SDS011;13688;53.154;18.136;2023-06-22T06:40:02;5.93;;;3.30;;
25868;SDS011;13688;53.154;18.136;2023-06-22T06:45:26;5.97;;;3.40;;
25868;SDS011;13688;53.154;18.136;2023-06-22T06:50:51;7.33;;;3.37;;
25868;SDS011;13688;53.154;18.136;2023-06-22T06:56:14;6.22;;;3.05;;
25868;SDS011;13688;53.154;18.136;2023-06-22T07:01:37;5.37;;;3.13;;
25868;SDS011;13688;53.154;18.136;2023-06-22T07:07:01;7.10;;;2.65;;
25868;SDS011;13688;53.154;18.136;2023-06-22T07:12:24;5.12;;;2.80;;
25868;SDS011;13688;53.154;18.136;2023-06-22T07:17:46;8.70;;;2.80;;
25868;SDS011;13688;53.154;18.136;2023-06-22T07:23:09;10.07;;;3.00;;
25868;SDS011;13688;53.154;18.136;2023-06-22T07:28:32;6.28;;;3.02;;
25868;SDS011;13688;53.154;18.136;2023-06-22T07:33:55;4.30;;;2.90;;
25868;SDS011;13688;53.154;18.136;2023-06-22T07:39:17;6.80;;;3.17;;
25868;SDS011;13688;53.154;18.136;2023-06-22T07:44:41;4.35;;;2.55;;
25868;SDS011;13688;53.154;18.136;2023-06-22T07:50:05;4.33;;;2.90;;
25868;SDS011;13688;53.154;18.136;2023-06-22T07:55:27;4.87;;;2.87;;
25868;SDS011;13688;53.154;18.136;2023-06-22T08:00:52;4.37;;;2.40;;
25868;SDS011;13688;53.154;18.136;2023-06-22T08:06:14;7.23;;;2.90;;
25868;SDS011;13688;53.154;18.136;2023-06-22T08:11:39;5.17;;;3.10;;
25868;SDS011;13688;53.154;18.136;2023-06-22T08:17:01;4.40;;;2.62;;
25868;SDS011;13688;53.154;18.136;2023-06-22T08:22:24;5.62;;;3.17;;
25868;SDS011;13688;53.154;18.136;2023-06-22T08:27:47;7.62;;;2.95;;
25868;SDS011;13688;53.154;18.136;2023-06-22T08:33:10;3.83;;;2.50;;
25868;SDS011;13688;53.154;18.136;2023-06-22T08:38:34;4.03;;;2.65;;
25868;SDS011;13688;53.154;18.136;2023-06-22T08:43:57;5.87;;;2.83;;
25868;SDS011;13688;53.154;18.136;2023-06-22T08:49:19;5.70;;;2.72;;
25868;SDS011;13688;53.154;18.136;2023-06-22T08:54:42;4.47;;;2.52;;
25868;SDS011;13688;53.154;18.136;2023-06-22T09:00:10;3.83;;;2.52;;
25868;SDS011;13688;53.154;18.136;2023-06-22T09:05:33;4.28;;;2.60;;
25868;SDS011;13688;53.154;18.136;2023-06-22T09:10:55;7.43;;;2.90;;
25868;SDS011;13688;53.154;18.136;2023-06-22T09:16:18;5.90;;;3.00;;
25868;SDS011;13688;53.154;18.136;2023-06-22T09:21:40;4.73;;;2.47;;
25868;SDS011;13688;53.154;18.136;2023-06-22T09:27:03;3.95;;;2.65;;
25868;SDS011;13688;53.154;18.136;2023-06-22T09:32:26;8.05;;;2.87;;
25868;SDS011;13688;53.154;18.136;2023-06-22T09:37:49;6.12;;;2.70;;
25868;SDS011;13688;53.154;18.136;2023-06-22T09:43:12;6.35;;;2.95;;
25868;SDS011;13688;53.154;18.136;2023-06-22T09:48:34;3.45;;;2.12;;
25868;SDS011;13688;53.154;18.136;2023-06-22T09:53:56;3.00;;;2.12;;
25868;SDS011;13688;53.154;18.136;2023-06-22T09:59:21;4.08;;;2.35;;
25868;SDS011;13688;53.154;18.136;2023-06-22T10:04:44;4.60;;;2.90;;
25868;SDS011;13688;53.154;18.136;2023-06-22T10:10:08;4.53;;;2.27;;
25868;SDS011;13688;53.154;18.136;2023-06-22T10:15:32;4.33;;;2.90;;
25868;SDS011;13688;53.154;18.136;2023-06-22T10:20:56;6.03;;;3.02;;
25868;SDS011;13688;53.154;18.136;2023-06-22T10:26:20;3.42;;;2.35;;
25868;SDS011;13688;53.154;18.136;2023-06-22T10:31:43;3.15;;;2.05;;
25868;SDS011;13688;53.154;18.136;2023-06-22T10:37:07;3.08;;;2.10;;
25868;SDS011;13688;53.154;18.136;2023-06-22T10:42:30;5.25;;;2.70;;
25868;SDS011;13688;53.154;18.136;2023-06-22T10:47:54;5.30;;;2.45;;
25868;SDS011;13688;53.154;18.136;2023-06-22T10:53:16;5.05;;;2.27;;
25868;SDS011;13688;53.154;18.136;2023-06-22T10:58:41;4.45;;;3.10;;
25868;SDS011;13688;53.154;18.136;2023-06-22T11:04:05;4.08;;;2.50;;
25868;SDS011;13688;53.154;18.136;2023-06-22T11:09:29;4.28;;;2.50;;
25868;SDS011;13688;53.154;18.136;2023-06-22T11:14:56;4.15;;;2.20;;
25868;SDS011;13688;53.154;18.136;2023-06-22T11:20:20;4.40;;;2.37;;
25868;SDS011;13688;53.154;18.136;2023-06-22T11:25:44;3.95;;;2.67;;
25868;SDS011;13688;53.154;18.136;2023-06-22T11:31:09;4.22;;;2.30;;
25868;SDS011;13688;53.154;18.136;2023-06-22T11:36:34;5.80;;;2.50;;
25868;SDS011;13688;53.154;18.136;2023-06-22T11:41:59;3.25;;;2.20;;
25868;SDS011;13688;53.154;18.136;2023-06-22T11:47:24;3.98;;;2.30;;
25868;SDS011;13688;53.154;18.136;2023-06-22T11:52:49;3.27;;;2.33;;
25868;SDS011;13688;53.154;18.136;2023-06-22T11:58:14;4.22;;;2.15;;
25868;SDS011;13688;53.154;18.136;2023-06-22T12:03:38;4.15;;;2.50;;
25868;SDS011;13688;53.154;18.136;2023-06-22T12:09:03;5.75;;;2.12;;
25868;SDS011;13688;53.154;18.136;2023-06-22T12:14:26;4.53;;;1.92;;
25868;SDS011;13688;53.154;18.136;2023-06-22T12:19:50;3.42;;;2.02;;
25868;SDS011;13688;53.154;18.136;2023-06-22T12:25:16;3.10;;;1.80;;
25868;SDS011;13688;53.154;18.136;2023-06-22T12:30:39;3.72;;;2.10;;
25868;SDS011;13688;53.154;18.136;2023-06-22T12:36:04;3.12;;;2.37;;
25868;SDS011;13688;53.154;18.136;2023-06-22T12:41:28;2.95;;;2.08;;
25868;SDS011;13688;53.154;18.136;2023-06-22T12:46:53;7.78;;;2.30;;
25868;SDS011;13688;53.154;18.136;2023-06-22T12:52:19;3.65;;;2.30;;
25868;SDS011;13688;53.154;18.136;2023-06-22T12:57:43;3.60;;;2.42;;
25868;SDS011;13688;53.154;18.136;2023-06-22T13:03:08;4.83;;;2.20;;
25868;SDS011;13688;53.154;18.136;2023-06-22T13:08:32;6.62;;;2.40;;
25868;SDS011;13688;53.154;18.136;2023-06-22T13:13:56;2.47;;;2.08;;
25868;SDS011;13688;53.154;18.136;2023-06-22T13:19:19;2.58;;;1.92;;
25868;SDS011;13688;53.154;18.136;2023-06-22T13:24:42;3.60;;;2.10;;
25868;SDS011;13688;53.154;18.136;2023-06-22T13:30:06;4.35;;;2.12;;
25868;SDS011;13688;53.154;18.136;2023-06-22T13:35:29;4.30;;;2.37;;
25868;SDS011;13688;53.154;18.136;2023-06-22T13:40:52;3.15;;;2.30;;
25868;SDS011;13688;53.154;18.136;2023-06-22T13:46:15;2.80;;;2.22;;
25868;SDS011;13688;53.154;18.136;2023-06-22T13:51:38;4.65;;;2.33;;
25868;SDS011;13688;53.154;18.136;2023-06-22T13:57:02;2.87;;;2.10;;
25868;SDS011;13688;53.154;18.136;2023-06-22T14:02:26;2.37;;;2.05;;
25868;SDS011;13688;53.154;18.136;2023-06-22T14:07:50;4.37;;;1.98;;
25868;SDS011;13688;53.154;18.136;2023-06-22T14:13:16;2.87;;;2.10;;
25868;SDS011;13688;53.154;18.136;2023-06-22T14:18:40;9.20;;;7.85;;
25868;SDS011;13688;53.154;18.136;2023-06-22T14:24:05;2.83;;;2.25;;
25868;SDS011;13688;53.154;18.136;2023-06-22T14:29:31;2.90;;;2.00;;
25868;SDS011;13688;53.154;18.136;2023-06-22T14:34:56;4.08;;;1.90;;
25868;SDS011;13688;53.154;18.136;2023-06-22T14:40:21;3.52;;;2.27;;
25868;SDS011;13688;53.154;18.136;2023-06-22T14:45:47;3.15;;;2.00;;
25868;SDS011;13688;53.154;18.136;2023-06-22T14:51:12;2.40;;;2.10;;
25868;SDS011;13688;53.154;18.136;2023-06-22T14:56:36;2.92;;;2.00;;
25868;SDS011;13688;53.154;18.136;2023-06-22T15:02:01;3.33;;;2.12;;
25868;SDS011;13688;53.154;18.136;2023-06-22T15:07:26;3.40;;;2.30;;
25868;SDS011;13688;53.154;18.136;2023-06-22T15:12:51;14.63;;;11.35;;
25868;SDS011;13688;53.154;18.136;2023-06-22T15:18:16;2.98;;;2.27;;
25868;SDS011;13688;53.154;18.136;2023-06-22T15:23:42;3.22;;;1.98;;
25868;SDS011;13688;53.154;18.136;2023-06-22T15:29:07;2.67;;;2.12;;
25868;SDS011;13688;53.154;18.136;2023-06-22T15:34:33;3.15;;;2.12;;
25868;SDS011;13688;53.154;18.136;2023-06-22T15:39:58;3.52;;;1.87;;
25868;SDS011;13688;53.154;18.136;2023-06-22T15:45:22;3.55;;;2.20;;
25868;SDS011;13688;53.154;18.136;2023-06-22T15:50:45;2.30;;;2.00;;
25868;SDS011;13688;53.154;18.136;2023-06-22T15:56:10;2.62;;;1.95;;
25868;SDS011;13688;53.154;18.136;2023-06-22T16:01:34;2.25;;;2.05;;
25868;SDS011;13688;53.154;18.136;2023-06-22T16:07:00;2.37;;;2.05;;
25868;SDS011;13688;53.154;18.136;2023-06-22T16:12:22;2.50;;;2.08;;
25868;SDS011;13688;53.154;18.136;2023-06-22T16:17:45;4.45;;;2.37;;
25868;SDS011;13688;53.154;18.136;2023-06-22T16:23:08;2.85;;;2.00;;
25868;SDS011;13688;53.154;18.136;2023-06-22T16:28:31;3.30;;;2.00;;
25868;SDS011;13688;53.154;18.136;2023-06-22T16:33:53;3.37;;;2.30;;
25868;SDS011;13688;53.154;18.136;2023-06-22T16:39:16;5.33;;;2.10;;
25868;SDS011;13688;53.154;18.136;2023-06-22T16:44:38;2.45;;;2.10;;
25868;SDS011;13688;53.154;18.136;2023-06-22T16:50:01;2.58;;;2.10;;
25868;SDS011;13688;53.154;18.136;2023-06-22T16:55:24;4.45;;;2.10;;
25868;SDS011;13688;53.154;18.136;2023-06-22T17:00:47;2.62;;;2.10;;
25868;SDS011;13688;53.154;18.136;2023-06-22T17:06:11;2.47;;;2.08;;
25868;SDS011;13688;53.154;18.136;2023-06-22T17:11:36;4.53;;;3.50;;
25868;SDS011;13688;53.154;18.136;2023-06-22T17:17:02;5.28;;;2.42;;
25868;SDS011;13688;53.154;18.136;2023-06-22T17:22:28;3.27;;;2.05;;
25868;SDS011;13688;53.154;18.136;2023-06-22T17:27:57;4.33;;;2.25;;
25868;SDS011;13688;53.154;18.136;2023-06-22T17:33:17;3.42;;;2.10;;
25868;SDS011;13688;53.154;18.136;2023-06-22T17:38:42;5.50;;;2.50;;
25868;SDS011;13688;53.154;18.136;2023-06-22T17:44:08;2.62;;;2.15;;
25868;SDS011;13688;53.154;18.136;2023-06-22T17:49:37;3.50;;;2.70;;
25868;SDS011;13688;53.154;18.136;2023-06-22T17:55:03;2.95;;;2.17;;
25868;SDS011;13688;53.154;18.136;2023-06-22T18:00:26;2.05;;;1.85;;
25868;SDS011;13688;53.154;18.136;2023-06-22T18:05:50;2.90;;;1.90;;
25868;SDS011;13688;53.154;18.136;2023-06-22T18:11:13;8.35;;;3.33;;
25868;SDS011;13688;53.154;18.136;2023-06-22T18:16:43;3.92;;;1.87;;
25868;SDS011;13688;53.154;18.136;2023-06-22T18:22:05;6.20;;;2.12;;
25868;SDS011;13688;53.154;18.136;2023-06-22T18:27:28;2.75;;;1.95;;
25868;SDS011;13688;53.154;18.136;2023-06-22T18:32:53;5.30;;;2.00;;
25868;SDS011;13688;53.154;18.136;2023-06-22T18:38:15;4.10;;;2.00;;
25868;SDS011;13688;53.154;18.136;2023-06-22T18:43:38;4.70;;;3.75;;
25868;SDS011;13688;53.154;18.136;2023-06-22T18:49:02;2.30;;;2.10;;
25868;SDS011;13688;53.154;18.136;2023-06-22T18:54:36;5.83;;;2.35;;
25868;SDS011;13688;53.154;18.136;2023-06-22T19:00:05;5.25;;;2.55;;
25868;SDS011;13688;53.154;18.136;2023-06-22T19:05:38;3.45;;;3.12;;
25868;SDS011;13688;53.154;18.136;2023-06-22T19:11:13;5.65;;;2.83;;
25868;SDS011;13688;53.154;18.136;2023-06-22T19:16:38;5.00;;;2.65;;
25868;SDS011;13688;53.154;18.136;2023-06-22T19:22:09;4.65;;;2.47;;
25868;SDS011;13688;53.154;18.136;2023-06-22T19:27:34;5.10;;;2.70;;
25868;SDS011;13688;53.154;18.136;2023-06-22T19:32:59;3.65;;;2.42;;
25868;SDS011;13688;53.154;18.136;2023-06-22T19:38:27;22.55;;;20.15;;
25868;SDS011;13688;53.154;18.136;2023-06-22T19:43:49;3.12;;;2.80;;
25868;SDS011;13688;53.154;18.136;2023-06-22T19:49:15;4.92;;;2.95;;
25868;SDS011;13688;53.154;18.136;2023-06-22T19:54:39;7.95;;;6.45;;
25868;SDS011;13688;53.154;18.136;2023-06-22T20:00:07;5.08;;;2.92;;
25868;SDS011;13688;53.154;18.136;2023-06-22T20:05:33;7.28;;;2.65;;
25868;SDS011;13688;53.154;18.136;2023-06-22T20:11:00;4.17;;;2.50;;
25868;SDS011;13688;53.154;18.136;2023-06-22T20:16:26;9.68;;;7.97;;
25868;SDS011;13688;53.154;18.136;2023-06-22T20:22:06;3.83;;;2.87;;
25868;SDS011;13688;53.154;18.136;2023-06-22T20:27:31;6.33;;;3.52;;
25868;SDS011;13688;53.154;18.136;2023-06-22T20:33:01;10.65;;;3.47;;
25868;SDS011;13688;53.154;18.136;2023-06-22T20:38:33;7.05;;;3.27;;
25868;SDS011;13688;53.154;18.136;2023-06-22T20:43:56;6.08;;;3.80;;
25868;SDS011;13688;53.154;18.136;2023-06-22T20:49:18;7.37;;;3.52;;
25868;SDS011;13688;53.154;18.136;2023-06-22T20:54:41;4.75;;;3.20;;
25868;SDS011;13688;53.154;18.136;2023-06-22T21:00:03;7.97;;;3.90;;
25868;SDS011;13688;53.154;18.136;2023-06-22T21:05:27;7.60;;;3.80;;
25868;SDS011;13688;53.154;18.136;2023-06-22T21:10:50;4.50;;;3.37;;
25868;SDS011;13688;53.154;18.136;2023-06-22T21:16:13;6.22;;;3.40;;
25868;SDS011;13688;53.154;18.136;2023-06-22T21:21:39;6.05;;;3.67;;
25868;SDS011;13688;53.154;18.136;2023-06-22T21:27:02;5.42;;;3.85;;
25868;SDS011;13688;53.154;18.136;2023-06-22T21:32:25;4.58;;;3.65;;
25868;SDS011;13688;53.154;18.136;2023-06-22T21:37:51;6.08;;;3.83;;
25868;SDS011;13688;53.154;18.136;2023-06-22T21:43:15;6.10;;;3.70;;
25868;SDS011;13688;53.154;18.136;2023-06-22T21:48:39;4.22;;;3.52;;
25868;SDS011;13688;53.154;18.136;2023-06-22T21:54:01;8.60;;;4.12;;
25868;SDS011;13688;53.154;18.136;2023-06-22T21:59:23;6.25;;;4.08;;
25868;SDS011;13688;53.154;18.136;2023-06-22T22:04:49;5.60;;;3.90;;
25868;SDS011;13688;53.154;18.136;2023-06-22T22:10:11;6.15;;;3.60;;
25868;SDS011;13688;53.154;18.136;2023-06-22T22:15:34;7.17;;;4.25;;
25868;SDS011;13688;53.154;18.136;2023-06-22T22:20:56;5.35;;;3.87;;
25868;SDS011;13688;53.154;18.136;2023-06-22T22:26:18;9.48;;;4.42;;
25868;SDS011;13688;53.154;18.136;2023-06-22T22:31:41;6.97;;;4.15;;
25868;SDS011;13688;53.154;18.136;2023-06-22T22:37:04;6.28;;;4.60;;
25868;SDS011;13688;53.154;18.136;2023-06-22T22:42:26;7.92;;;5.08;;
25868;SDS011;13688;53.154;18.136;2023-06-22T22:47:51;9.45;;;5.42;;
25868;SDS011;13688;53.154;18.136;2023-06-22T22:53:14;9.93;;;5.33;;
25868;SDS011;13688;53.154;18.136;2023-06-22T22:58:37;7.72;;;5.45;;
25868;SDS011;13688;53.154;18.136;2023-06-22T23:04:00;9.28;;;5.45;;
25868;SDS011;13688;53.154;18.136;2023-06-22T23:09:23;9.28;;;5.90;;
25868;SDS011;13688;53.154;18.136;2023-06-22T23:14:45;11.10;;;5.40;;
25868;SDS011;13688;53.154;18.136;2023-06-22T23:20:07;7.20;;;5.47;;
25868;SDS011;13688;53.154;18.136;2023-06-22T23:25:30;9.98;;;6.00;;
25868;SDS011;13688;53.154;18.136;2023-06-22T23:30:54;7.92;;;5.42;;
25868;SDS011;13688;53.154;18.136;2023-06-22T23:36:17;7.53;;;5.80;;
25868;SDS011;13688;53.154;18.136;2023-06-22T23:41:39;12.20;;;5.80;;
25868;SDS011;13688;53.154;18.136;2023-06-22T23:47:02;10.72;;;6.80;;
25868;SDS011;13688;53.154;18.136;2023-06-22T23:52:26;9.28;;;5.47;;
25868;SDS011;13688;53.154;18.136;2023-06-22T23:57:53;7.25;;;5.40;;
